createdAt,value
2023-01-03T07:06:38.759Z,100283.09
2023-01-03T07:16:45.454Z,100298.84
2023-01-03T07:26:49.271Z,100304.52
2023-01-03T07:36:52.964Z,100316.60
2023-01-03T07:46:56.645Z,100329.00
2023-01-03T07:57:00.823Z,100343.14
2023-01-03T08:07:04.382Z,100355.73
2023-01-03T08:17:08.069Z,100362.70
2023-01-03T08:33:04.237Z,100375.89
2023-01-03T08:43:08.476Z,100381.52
2023-01-03T08:53:12.106Z,100394.11
2023-01-03T09:03:15.948Z,100407.59
2023-01-03T09:13:21.801Z,100406.33
2023-01-03T09:23:25.507Z,100419.15
2023-01-03T09:33:29.283Z,100427.19
2023-01-03T09:43:41.400Z,100438.70
2023-01-03T09:54:03.809Z,100440.67
2023-01-03T10:04:30.532Z,100450.39
2023-01-03T10:14:37.146Z,100457.55
2023-01-03T10:24:46.551Z,100471.25
2023-01-03T10:35:02.427Z,100474.41
2023-01-03T10:45:15.083Z,100475.58
2023-01-03T10:55:21.225Z,100478.09
2023-01-03T11:05:27.443Z,100481.65
2023-01-03T11:15:37.625Z,100491.45
2023-01-03T11:26:01.010Z,100484.16
2023-01-03T11:36:27.485Z,100488.88
2023-01-03T11:46:34.315Z,100496.19
2023-01-03T11:56:44.872Z,100502.33
2023-01-03T12:06:49.619Z,100508.89
2023-01-03T12:17:04.827Z,100507.86
2023-01-03T12:27:17.614Z,100518.37
2023-01-03T12:37:30.984Z,100517.04
2023-01-03T12:47:42.747Z,100512.11
2023-01-03T12:58:15.299Z,100521.06
2023-01-03T13:08:34.535Z,100527.55
2023-01-03T13:18:38.311Z,100529.98
2023-01-03T13:28:42.247Z,100541.05
2023-01-03T13:38:46.527Z,100547.27
2023-01-03T13:49:09.224Z,100559.48
2023-01-03T13:59:16.001Z,100568.73
2023-01-03T14:09:40.798Z,100579.80
2023-01-03T14:19:51.516Z,100577.44
2023-01-03T14:29:56.209Z,100592.05
2023-01-03T14:40:06.944Z,100602.39
2023-01-03T14:50:20.160Z,100604.24
2023-01-03T15:00:32.537Z,100620.47
2023-01-03T15:11:00.886Z,100625.09
2023-01-03T15:21:06.757Z,100626.27
2023-01-03T15:31:22.777Z,100636.59
2023-01-03T15:42:06.407Z,100640.51
2023-01-03T15:52:16.131Z,100646.55
2023-01-03T16:02:21.571Z,100650.19
2023-01-03T16:12:33.227Z,100653.94
2023-01-03T16:22:38.465Z,100660.67
2023-01-03T16:32:44.770Z,100665.16
2023-01-03T16:42:51.015Z,100661.65
2023-01-03T16:52:57.354Z,100668.17
2023-01-03T17:03:01.820Z,100674.92
2023-01-03T17:13:30.059Z,100673.07
2023-01-03T17:23:38.314Z,100687.79
2023-01-03T17:33:42.469Z,100697.63
2023-01-03T17:43:46.516Z,100716.11
2023-01-03T17:53:51.920Z,100718.20
2023-01-03T18:03:55.972Z,100733.01
2023-01-03T18:13:59.937Z,100740.08
2023-01-03T18:24:27.894Z,100751.00
2023-01-03T18:34:31.493Z,100754.96
2023-01-03T18:44:36.531Z,100756.61
2023-01-03T18:54:40.146Z,100760.02
2023-01-03T19:04:49.210Z,100771.29
2023-01-03T19:14:54.921Z,100780.58
2023-01-03T19:25:04.906Z,100790.63
2023-01-03T19:35:16.254Z,100800.27
2023-01-03T19:45:20.005Z,100797.85
2023-01-03T19:55:27.891Z,100807.52
2023-01-03T20:05:37.045Z,100820.57
2023-01-03T20:15:43.963Z,100826.77
2023-01-03T20:25:50.711Z,100834.86
2023-01-03T20:36:11.588Z,100831.15
2023-01-03T20:46:22.803Z,100834.16
2023-01-03T20:56:28.064Z,100837.17
2023-01-03T21:06:34.957Z,100832.73
2023-01-03T21:16:46.722Z,100847.02
2023-01-03T21:26:51.028Z,100853.09
2023-01-03T21:36:55.748Z,100868.16
2023-01-03T21:46:59.270Z,100878.06
2023-01-03T21:57:04.047Z,100873.11
2023-01-03T22:07:07.663Z,100880.54
2023-01-03T22:17:11.326Z,100879.92
2023-01-03T22:27:15.057Z,100888.23
2023-01-03T22:37:19.127Z,100894.57
2023-01-03T22:47:24.833Z,100893.91
2023-01-03T22:57:28.411Z,100889.74
2023-01-03T23:07:32.150Z,100895.50
2023-01-03T23:17:54.520Z,100902.09
2023-01-03T23:27:59.341Z,100907.50
2023-01-03T23:38:03.442Z,100909.30
2023-01-03T23:48:07.081Z,100910.86
2023-01-03T23:58:10.933Z,100911.42
